Terminal Aerodrome Forecast
Issued by NWS Bismarck, ND

Home | Current Version | Previous Version | Graphics & Text | Print | Product List | Glossary On
Versions: 1 2 3 4 5 6 7 8 9 10 11 12 13 14 15 16
000
FTUS43 KBIS 250500
TAFISN
TAF
KISN 250531Z 2506/2606 31015G22KT P6SM -SHRA SCT010 OVC015
     FM250800 31015KT P6SM VCSH OVC008
     FM251700 31014KT P6SM BKN015 OVC035
     FM252000 31012KT P6SM BKN035
     FM252300 31007KT P6SM SCT035 SCT140=

USA.gov is the U.S. government's official web portal to all federal, state and local government web resources and services.